createdAt,value
2024-01-31T00:00:06.608Z,8.23
2024-01-31T00:02:33.139Z,8.73
2024-01-31T00:05:00.018Z,9.63
2024-01-31T00:07:28.206Z,8.90
2024-01-31T00:09:54.934Z,9.38
2024-01-31T00:12:21.487Z,8.53
2024-01-31T00:14:48.013Z,8.82
2024-01-31T00:17:14.537Z,8.68
2024-01-31T00:19:41.123Z,9.07
2024-01-31T00:22:07.731Z,8.57
2024-01-31T00:24:35.617Z,8.20
2024-01-31T00:27:02.270Z,8.23
2024-01-31T00:29:28.800Z,8.30
2024-01-31T00:31:55.411Z,8.40
2024-01-31T00:34:22.095Z,8.75
2024-01-31T00:36:48.686Z,8.55
2024-01-31T00:39:15.295Z,7.68
2024-01-31T00:41:43.201Z,8.43
2024-01-31T00:44:09.708Z,7.07
2024-01-31T00:46:41.726Z,7.43
2024-01-31T00:49:08.353Z,6.43
2024-01-31T00:51:34.911Z,6.30
2024-01-31T00:54:01.468Z,6.82
2024-01-31T00:56:28.060Z,6.38
2024-01-31T00:58:55.899Z,8.10
2024-01-31T01:01:22.473Z,6.93
2024-01-31T01:09:31.536Z,6.65
2024-01-31T01:11:58.052Z,6.55
2024-01-31T01:14:25.963Z,7.30
2024-01-31T01:16:52.572Z,6.65
2024-01-31T01:19:19.325Z,7.47
2024-01-31T01:21:45.852Z,6.10
2024-01-31T01:24:12.377Z,7.05
2024-01-31T01:26:39.497Z,6.68
2024-01-31T01:29:05.999Z,7.05
2024-01-31T01:31:33.937Z,6.55
2024-01-31T01:34:00.715Z,6.63
2024-01-31T01:36:27.448Z,7.25
2024-01-31T01:38:53.943Z,6.83
2024-01-31T01:41:20.478Z,7.25
2024-01-31T01:43:48.615Z,6.07
2024-01-31T01:46:17.912Z,6.45
2024-01-31T01:48:46.150Z,7.28
2024-01-31T01:51:15.708Z,5.97
2024-01-31T01:53:42.635Z,7.22
2024-01-31T01:56:09.776Z,6.72
2024-01-31T01:58:37.457Z,6.82
2024-01-31T02:01:04.622Z,6.50
2024-01-31T02:03:31.693Z,6.47
2024-01-31T02:06:01.110Z,7.10
2024-01-31T02:08:28.579Z,6.43
2024-01-31T02:10:55.498Z,6.47
2024-01-31T02:13:22.837Z,7.18
2024-01-31T02:15:53.257Z,7.22
2024-01-31T02:18:20.003Z,6.53
2024-01-31T02:20:46.904Z,6.78
2024-01-31T02:23:14.747Z,6.85
2024-01-31T02:25:41.296Z,8.38
2024-01-31T02:28:07.903Z,9.45
2024-01-31T02:30:34.508Z,9.00
2024-01-31T02:33:01.074Z,7.93
2024-01-31T02:35:27.948Z,8.67
2024-01-31T02:37:54.469Z,7.88
2024-01-31T02:40:22.385Z,7.10
2024-01-31T02:42:49.508Z,7.00
2024-01-31T02:45:16.153Z,7.70
2024-01-31T02:47:42.760Z,9.13
2024-01-31T02:50:10.083Z,7.03
2024-01-31T02:52:36.949Z,8.50
2024-01-31T02:55:04.112Z,7.03
2024-01-31T02:57:32.068Z,6.45
2024-01-31T02:59:58.707Z,6.13
2024-01-31T03:02:25.172Z,7.03
2024-01-31T03:04:51.743Z,7.03
2024-01-31T03:07:18.419Z,8.23
2024-01-31T03:09:45.120Z,7.23
2024-01-31T03:12:11.654Z,7.30
2024-01-31T03:14:39.686Z,7.03
2024-01-31T03:17:06.176Z,7.95
2024-01-31T03:19:33.469Z,7.93
2024-01-31T03:24:26.601Z,7.25
2024-01-31T03:26:53.089Z,7.40
2024-01-31T03:29:19.600Z,8.00
2024-01-31T03:31:47.585Z,7.15
2024-01-31T03:34:14.500Z,6.90
2024-01-31T03:36:41.045Z,7.32
2024-01-31T03:39:07.557Z,7.50
2024-01-31T03:41:34.112Z,7.88
2024-01-31T03:44:00.646Z,7.57
2024-01-31T03:46:27.248Z,7.53
2024-01-31T03:48:55.169Z,8.40
2024-01-31T03:51:22.420Z,7.65
2024-01-31T03:53:49.184Z,7.85
2024-01-31T03:56:16.187Z,9.02
2024-01-31T03:58:43.326Z,8.82
2024-01-31T04:01:10.291Z,8.10
2024-01-31T04:03:38.052Z,7.90
2024-01-31T04:06:06.256Z,8.07
2024-01-31T04:08:32.784Z,8.40
2024-01-31T04:10:59.286Z,5.95
2024-01-31T04:13:25.846Z,7.53
2024-01-31T04:15:53.304Z,8.60
2024-01-31T04:20:47.055Z,10.80
2024-01-31T04:23:14.942Z,10.45
2024-01-31T04:25:41.503Z,11.02
2024-01-31T04:28:08.077Z,10.68
2024-01-31T04:30:34.646Z,10.13
2024-01-31T04:33:01.941Z,9.83
2024-01-31T04:35:28.819Z,8.70
2024-01-31T04:37:55.661Z,9.25
2024-01-31T04:40:23.609Z,9.95
2024-01-31T04:42:53.197Z,9.55
2024-01-31T04:45:20.941Z,8.70
2024-01-31T04:47:47.620Z,9.43
2024-01-31T04:50:14.416Z,9.23
2024-01-31T04:52:41.121Z,8.80
2024-01-31T04:55:08.185Z,7.83
2024-01-31T04:57:36.222Z,8.15
2024-01-31T05:00:03.578Z,7.90
2024-01-31T05:02:30.097Z,8.75
2024-01-31T05:04:56.657Z,8.20
2024-01-31T05:07:23.247Z,8.20
2024-01-31T05:09:49.794Z,8.20
2024-01-31T05:12:16.392Z,8.00
2024-01-31T05:14:44.243Z,9.20
2024-01-31T05:17:10.721Z,9.35
2024-01-31T05:19:37.305Z,9.55
2024-01-31T05:22:04.419Z,9.63
2024-01-31T05:24:30.995Z,9.90
2024-01-31T05:26:57.521Z,10.00
2024-01-31T05:29:24.010Z,9.77
2024-01-31T05:31:52.012Z,9.57
2024-01-31T05:34:18.600Z,9.85
2024-01-31T05:36:45.212Z,9.15
2024-01-31T05:39:11.712Z,10.17
2024-01-31T05:41:41.925Z,9.05
2024-01-31T05:44:08.436Z,9.23
2024-01-31T05:46:35.004Z,9.30
2024-01-31T05:49:03.184Z,10.00
2024-01-31T05:51:30.082Z,9.82
2024-01-31T05:53:56.644Z,9.30
2024-01-31T05:56:23.279Z,8.80
2024-01-31T05:58:50.163Z,9.07
2024-01-31T06:01:17.301Z,8.38
2024-01-31T06:03:43.933Z,9.60
2024-01-31T06:06:11.898Z,10.63
2024-01-31T06:08:38.403Z,8.98
2024-01-31T06:11:04.890Z,9.15
2024-01-31T06:13:31.672Z,8.95
2024-01-31T06:15:58.308Z,8.27
2024-01-31T06:18:24.970Z,9.57
2024-01-31T06:20:51.565Z,8.60
2024-01-31T06:23:23.125Z,8.63
2024-01-31T06:25:50.047Z,8.65
2024-01-31T06:28:16.701Z,8.00
2024-01-31T06:30:43.234Z,8.90
2024-01-31T06:33:09.911Z,7.60
2024-01-31T06:35:36.956Z,8.27
2024-01-31T06:38:03.893Z,8.95
2024-01-31T06:40:31.972Z,8.70
2024-01-31T06:42:58.975Z,8.35
2024-01-31T06:45:25.610Z,8.00
2024-01-31T06:47:52.355Z,7.97
2024-01-31T06:50:19.538Z,7.55
2024-01-31T06:52:46.278Z,8.57
2024-01-31T06:55:13.896Z,7.80
2024-01-31T06:57:41.762Z,6.72
2024-01-31T07:00:09.640Z,7.28
2024-01-31T07:02:36.157Z,7.35
2024-01-31T07:05:02.793Z,7.63
2024-01-31T07:07:29.400Z,8.00
2024-01-31T07:09:56.010Z,7.50
2024-01-31T07:12:22.521Z,7.18
2024-01-31T07:14:50.373Z,7.38
2024-01-31T07:17:17.208Z,7.85
2024-01-31T07:19:44.001Z,8.25
2024-01-31T07:22:10.899Z,8.07
2024-01-31T07:24:37.451Z,7.55
2024-01-31T07:27:04.306Z,7.07
2024-01-31T07:29:31.290Z,7.18
2024-01-31T07:31:59.305Z,7.30
2024-01-31T07:34:25.958Z,8.07
2024-01-31T07:36:52.490Z,7.83
2024-01-31T07:39:19.001Z,7.38
2024-01-31T07:41:45.729Z,7.22
2024-01-31T07:44:12.354Z,6.80
2024-01-31T07:46:38.907Z,8.33
2024-01-31T07:49:06.924Z,7.33
2024-01-31T07:51:33.672Z,7.35
2024-01-31T07:54:00.179Z,7.23
2024-01-31T07:56:26.666Z,6.75
2024-01-31T07:58:53.275Z,7.18
2024-01-31T08:01:19.912Z,7.17
2024-01-31T08:03:46.484Z,6.67
2024-01-31T08:06:14.488Z,7.23
2024-01-31T08:08:41.210Z,7.15
2024-01-31T08:11:07.689Z,7.77
2024-01-31T08:13:34.366Z,8.07
2024-01-31T08:16:01.067Z,7.45
2024-01-31T08:18:27.586Z,6.63
2024-01-31T08:20:54.098Z,7.03
2024-01-31T08:23:22.111Z,8.05
2024-01-31T08:25:48.777Z,7.55
2024-01-31T08:28:15.398Z,6.77
2024-01-31T08:30:41.961Z,7.43
2024-01-31T08:33:08.558Z,6.93
2024-01-31T08:35:35.166Z,6.50
2024-01-31T08:38:01.708Z,7.50
2024-01-31T08:40:29.638Z,7.53
2024-01-31T08:42:56.178Z,8.40
2024-01-31T08:45:22.703Z,9.43
2024-01-31T08:47:49.322Z,8.80
2024-01-31T08:50:16.032Z,8.17
2024-01-31T08:52:42.746Z,8.40
2024-01-31T08:55:10.152Z,6.70
2024-01-31T09:00:05.666Z,10.23
2024-01-31T09:02:32.242Z,8.57
2024-01-31T09:04:58.809Z,8.82
2024-01-31T09:07:25.489Z,9.10
2024-01-31T09:09:52.051Z,11.53
2024-01-31T09:12:18.583Z,10.45
2024-01-31T09:14:46.434Z,9.23
2024-01-31T09:17:13.068Z,8.70
2024-01-31T09:19:40.883Z,9.80
2024-01-31T09:22:08.302Z,8.82
2024-01-31T09:24:34.848Z,8.77
2024-01-31T09:27:02.117Z,8.93
2024-01-31T09:29:28.702Z,8.57
2024-01-31T09:31:56.657Z,9.17
2024-01-31T09:34:24.308Z,7.72
2024-01-31T09:36:50.929Z,7.65
2024-01-31T09:39:17.436Z,7.35
2024-01-31T09:41:43.959Z,8.27
2024-01-31T09:44:10.881Z,7.97
2024-01-31T09:46:40.373Z,7.70
2024-01-31T09:49:08.533Z,8.48
2024-01-31T09:51:35.167Z,7.95
2024-01-31T09:54:01.728Z,8.55
2024-01-31T09:56:28.609Z,7.65
2024-01-31T09:58:55.499Z,7.70
2024-01-31T10:01:28.504Z,8.13
2024-01-31T10:03:58.528Z,7.43
2024-01-31T10:06:26.899Z,8.10
2024-01-31T10:08:53.465Z,7.25
2024-01-31T10:11:20.075Z,7.55
2024-01-31T10:13:48.282Z,7.33
2024-01-31T10:16:15.314Z,7.82
2024-01-31T10:18:41.909Z,7.80
2024-01-31T10:21:09.955Z,7.63
2024-01-31T10:23:37.976Z,7.65
2024-01-31T10:26:06.954Z,7.60
2024-01-31T10:28:34.516Z,7.75
2024-01-31T10:31:01.239Z,7.68
2024-01-31T10:33:28.738Z,7.47
2024-01-31T10:38:25.734Z,8.05
2024-01-31T10:40:56.422Z,7.57
2024-01-31T10:43:24.054Z,7.35
2024-01-31T10:45:50.674Z,8.40
2024-01-31T10:48:17.629Z,8.60
2024-01-31T10:50:44.667Z,8.50
2024-01-31T10:53:13.004Z,8.10
2024-01-31T10:55:40.698Z,8.18
2024-01-31T10:58:10.250Z,7.57
2024-01-31T11:00:37.560Z,8.65
2024-01-31T11:03:04.624Z,7.53
2024-01-31T11:05:31.388Z,8.32
2024-01-31T11:07:59.440Z,8.20
2024-01-31T11:10:26.059Z,8.57
2024-01-31T11:12:57.458Z,8.38
2024-01-31T11:15:30.769Z,7.70
2024-01-31T11:18:05.000Z,7.38
2024-01-31T11:20:33.340Z,8.30
2024-01-31T11:22:59.868Z,7.50
2024-01-31T11:25:28.109Z,6.90
2024-01-31T11:27:55.839Z,7.28
2024-01-31T11:30:22.793Z,8.02
2024-01-31T11:32:51.556Z,8.15
2024-01-31T11:35:18.612Z,8.18
2024-01-31T11:37:45.167Z,7.82
2024-01-31T11:40:11.744Z,8.73
2024-01-31T11:42:38.344Z,8.50
2024-01-31T11:45:05.529Z,9.30
2024-01-31T11:47:33.404Z,8.50
2024-01-31T11:50:02.929Z,8.70
2024-01-31T11:52:29.475Z,8.90
2024-01-31T11:54:56.243Z,8.70
2024-01-31T11:57:22.846Z,8.38
2024-01-31T11:59:49.474Z,8.73
2024-01-31T12:02:16.210Z,7.80
2024-01-31T12:04:51.332Z,7.53
2024-01-31T12:07:19.251Z,7.32
2024-01-31T12:09:45.820Z,7.15
2024-01-31T12:12:13.205Z,8.13
2024-01-31T12:17:19.120Z,7.25
2024-01-31T12:19:45.747Z,6.82
2024-01-31T12:22:12.313Z,7.00
2024-01-31T12:24:40.280Z,7.63
2024-01-31T12:27:06.897Z,6.70
2024-01-31T12:29:33.519Z,6.67
2024-01-31T12:32:00.028Z,7.47
2024-01-31T12:34:26.549Z,6.47
2024-01-31T12:36:53.097Z,5.50
2024-01-31T12:39:19.619Z,5.75
2024-01-31T12:41:49.845Z,5.90
2024-01-31T12:44:17.618Z,5.97
2024-01-31T12:46:44.626Z,7.15
2024-01-31T12:49:11.269Z,5.20
2024-01-31T12:51:37.795Z,5.10
2024-01-31T12:54:04.632Z,4.70
2024-01-31T12:56:31.388Z,4.53
2024-01-31T12:58:59.261Z,4.40
2024-01-31T13:01:25.837Z,4.57
2024-01-31T13:03:52.551Z,3.75
2024-01-31T13:06:19.606Z,4.15
2024-01-31T13:08:46.437Z,3.78
2024-01-31T13:11:13.493Z,4.30
2024-01-31T13:13:40.134Z,3.92
2024-01-31T13:16:08.641Z,4.35
2024-01-31T13:18:36.258Z,5.15
2024-01-31T13:21:03.062Z,6.35
2024-01-31T13:23:29.570Z,6.95
2024-01-31T13:25:56.085Z,7.68
2024-01-31T13:28:22.559Z,7.50
2024-01-31T13:30:49.590Z,8.63
2024-01-31T13:33:17.640Z,6.70
2024-01-31T13:35:44.261Z,7.07
2024-01-31T13:38:10.809Z,8.07
2024-01-31T13:40:37.308Z,9.18
2024-01-31T13:43:04.234Z,8.50
2024-01-31T13:45:30.759Z,10.57
2024-01-31T13:47:57.411Z,8.68
2024-01-31T13:50:25.450Z,10.57
2024-01-31T13:52:51.999Z,10.50
2024-01-31T13:55:18.511Z,13.68
2024-01-31T13:57:45.220Z,13.25
2024-01-31T14:00:13.245Z,13.33
2024-01-31T14:02:39.880Z,13.13
2024-01-31T14:05:06.832Z,14.83
2024-01-31T14:07:34.666Z,14.43
2024-01-31T14:10:01.152Z,15.13
2024-01-31T14:12:27.654Z,15.45
2024-01-31T14:14:54.219Z,14.85
2024-01-31T14:17:20.749Z,13.88
2024-01-31T14:19:47.270Z,14.32
2024-01-31T14:22:20.733Z,15.93
2024-01-31T14:24:54.372Z,14.57
2024-01-31T14:27:20.926Z,13.18
2024-01-31T14:29:48.830Z,14.95
2024-01-31T14:32:16.161Z,14.93
2024-01-31T14:35:01.434Z,15.35
2024-01-31T14:37:27.946Z,14.50
2024-01-31T14:39:55.788Z,14.02
2024-01-31T14:42:22.315Z,17.95
2024-01-31T14:44:48.897Z,16.17
2024-01-31T14:47:15.406Z,17.20
2024-01-31T14:49:42.039Z,17.27
2024-01-31T14:52:11.421Z,17.30
2024-01-31T14:54:38.232Z,19.80
2024-01-31T14:57:06.330Z,18.98
2024-01-31T14:59:32.925Z,19.42
2024-01-31T15:01:59.414Z,16.93
2024-01-31T15:04:26.012Z,17.38
2024-01-31T15:06:52.638Z,16.33
2024-01-31T15:09:19.250Z,16.93
2024-01-31T15:11:45.828Z,17.05
2024-01-31T15:14:13.790Z,16.03
2024-01-31T15:16:40.303Z,16.00
2024-01-31T15:19:07.067Z,16.15
2024-01-31T15:21:33.739Z,14.93
2024-01-31T15:24:00.306Z,15.73
2024-01-31T15:26:26.934Z,16.47
2024-01-31T15:28:53.443Z,16.30
2024-01-31T15:31:21.439Z,15.38
2024-01-31T15:33:48.581Z,15.63
2024-01-31T15:36:15.236Z,18.27
2024-01-31T15:38:43.603Z,17.30
2024-01-31T15:41:10.142Z,17.75
2024-01-31T15:43:36.636Z,16.98
2024-01-31T15:46:03.271Z,19.10
2024-01-31T15:48:31.227Z,17.93
2024-01-31T15:50:57.847Z,18.08
2024-01-31T15:53:24.481Z,16.45
2024-01-31T15:55:50.990Z,18.17
2024-01-31T15:58:17.507Z,17.60
2024-01-31T16:00:44.063Z,16.05
2024-01-31T16:03:10.652Z,18.23
2024-01-31T16:05:38.711Z,15.10
2024-01-31T16:08:05.648Z,15.35
2024-01-31T16:10:32.242Z,16.48
2024-01-31T16:12:58.736Z,17.03
2024-01-31T16:15:25.238Z,15.88
2024-01-31T16:17:51.807Z,17.27
2024-01-31T16:20:18.476Z,16.67
2024-01-31T16:22:46.442Z,18.03
2024-01-31T16:25:13.126Z,16.65
2024-01-31T16:27:39.651Z,17.23
2024-01-31T16:30:07.323Z,16.65
2024-01-31T16:32:33.898Z,17.05
2024-01-31T16:35:00.519Z,18.08
2024-01-31T16:37:27.777Z,19.35
2024-01-31T16:39:55.599Z,17.25
2024-01-31T16:42:22.100Z,18.92
2024-01-31T16:44:48.645Z,20.13
2024-01-31T16:47:15.240Z,18.80
2024-01-31T16:49:41.896Z,17.43
2024-01-31T16:52:08.529Z,18.70
2024-01-31T16:54:35.074Z,17.08
2024-01-31T16:57:03.004Z,15.40
2024-01-31T16:59:29.562Z,18.05
2024-01-31T17:01:56.071Z,15.90
2024-01-31T17:04:22.604Z,17.00
2024-01-31T17:06:49.100Z,14.93
2024-01-31T17:09:15.742Z,13.82
2024-01-31T17:11:42.347Z,10.73
2024-01-31T17:14:10.220Z,11.23
2024-01-31T17:16:42.248Z,9.75
2024-01-31T17:19:08.924Z,9.18
2024-01-31T17:21:35.526Z,9.38
2024-01-31T17:24:02.104Z,7.32
2024-01-31T17:26:28.698Z,6.30
2024-01-31T17:28:55.256Z,6.07
2024-01-31T17:31:23.698Z,5.50
2024-01-31T17:33:52.576Z,3.92
2024-01-31T17:36:20.862Z,4.32
2024-01-31T17:38:47.391Z,4.90
2024-01-31T17:41:16.840Z,4.82
2024-01-31T17:43:43.747Z,4.70
2024-01-31T17:46:10.302Z,4.97
2024-01-31T17:48:38.257Z,4.30
2024-01-31T17:51:05.402Z,4.45
2024-01-31T17:53:31.996Z,5.95
2024-01-31T17:56:00.315Z,7.30
2024-01-31T17:58:26.839Z,8.52
2024-01-31T18:00:53.576Z,9.27
2024-01-31T18:03:20.227Z,9.85
2024-01-31T18:05:48.208Z,8.40
2024-01-31T18:08:14.793Z,8.52
2024-01-31T18:10:41.292Z,7.22
2024-01-31T18:13:08.035Z,7.00
2024-01-31T18:15:34.625Z,7.32
2024-01-31T18:18:01.254Z,6.80
2024-01-31T18:20:27.914Z,7.40
2024-01-31T18:22:55.841Z,6.10
2024-01-31T18:25:22.358Z,5.68
2024-01-31T18:27:48.852Z,5.60
2024-01-31T18:30:16.001Z,7.80
2024-01-31T18:32:42.707Z,6.78
2024-01-31T18:35:09.866Z,7.05
2024-01-31T18:37:36.573Z,5.90
2024-01-31T18:40:05.549Z,4.97
2024-01-31T18:42:32.184Z,5.68
2024-01-31T18:44:58.747Z,7.30
2024-01-31T18:47:25.429Z,5.77
2024-01-31T18:49:52.064Z,5.90
2024-01-31T18:52:18.715Z,5.37
2024-01-31T18:54:45.234Z,5.63
2024-01-31T18:57:13.297Z,5.95
2024-01-31T18:59:39.868Z,5.07
2024-01-31T19:02:06.449Z,4.72
2024-01-31T19:04:33.134Z,5.13
2024-01-31T19:06:59.830Z,5.78
2024-01-31T19:09:26.460Z,5.40
2024-01-31T19:11:53.053Z,4.65
2024-01-31T19:14:21.011Z,5.53
2024-01-31T19:16:47.641Z,5.20
2024-01-31T19:19:14.426Z,6.03
2024-01-31T19:21:41.663Z,5.53
2024-01-31T19:24:08.354Z,5.85
2024-01-31T19:26:35.011Z,5.00
2024-01-31T19:29:01.985Z,4.57
2024-01-31T19:31:29.963Z,4.93
2024-01-31T19:33:56.598Z,5.45
2024-01-31T19:36:25.337Z,4.87
2024-01-31T19:38:52.497Z,4.95
2024-01-31T19:41:19.354Z,6.10
2024-01-31T19:43:45.950Z,4.93
2024-01-31T19:46:14.825Z,5.67
2024-01-31T19:48:45.895Z,4.80
2024-01-31T19:51:12.713Z,5.40
2024-01-31T19:53:50.982Z,4.80
2024-01-31T19:56:18.070Z,5.15
2024-01-31T19:58:44.642Z,5.47
2024-01-31T20:01:11.369Z,5.18
2024-01-31T20:03:39.708Z,6.03
2024-01-31T20:06:07.817Z,5.93
2024-01-31T20:08:34.545Z,6.50
2024-01-31T20:11:01.252Z,6.03
2024-01-31T20:13:27.741Z,6.47
2024-01-31T20:15:54.281Z,6.25
2024-01-31T20:18:20.913Z,6.57
2024-01-31T20:20:48.341Z,6.07
2024-01-31T20:23:17.151Z,6.25
2024-01-31T20:25:43.674Z,6.45
2024-01-31T20:28:10.192Z,5.63
2024-01-31T20:30:36.805Z,6.40
2024-01-31T20:33:03.985Z,6.80
2024-01-31T20:35:30.647Z,6.40
2024-01-31T20:37:57.139Z,6.63
2024-01-31T20:40:25.004Z,5.82
2024-01-31T20:42:51.518Z,6.25
2024-01-31T20:45:18.086Z,6.18
2024-01-31T20:47:45.010Z,5.87
2024-01-31T20:50:12.336Z,6.40
2024-01-31T20:52:38.931Z,6.82
2024-01-31T20:55:07.092Z,6.65
2024-01-31T20:57:35.111Z,6.00
2024-01-31T21:00:01.922Z,6.38
2024-01-31T21:02:28.582Z,6.72
2024-01-31T21:04:55.201Z,5.13
2024-01-31T21:07:21.742Z,5.53
2024-01-31T21:09:48.215Z,6.47
2024-01-31T21:12:14.782Z,6.57
2024-01-31T21:14:42.794Z,6.50
2024-01-31T21:17:09.361Z,5.70
2024-01-31T21:19:35.937Z,7.30
2024-01-31T21:22:02.482Z,5.03
2024-01-31T21:24:30.323Z,6.40
2024-01-31T21:26:56.921Z,6.43
2024-01-31T21:29:23.454Z,6.55
2024-01-31T21:31:51.314Z,6.85
2024-01-31T21:34:18.014Z,6.25
2024-01-31T21:36:44.656Z,5.38
2024-01-31T21:39:11.260Z,6.20
2024-01-31T21:41:37.810Z,5.20
2024-01-31T21:44:04.773Z,4.80
2024-01-31T21:46:31.471Z,6.13
2024-01-31T21:48:59.672Z,5.75
2024-01-31T21:51:26.343Z,6.88
2024-01-31T21:53:53.067Z,6.32
2024-01-31T21:56:19.666Z,8.35
2024-01-31T21:58:46.222Z,8.83
2024-01-31T22:01:12.755Z,7.20
2024-01-31T22:03:50.024Z,8.20
2024-01-31T22:06:27.092Z,8.77
2024-01-31T22:08:54.257Z,7.88
2024-01-31T22:11:20.781Z,8.38
2024-01-31T22:13:47.423Z,9.50
2024-01-31T22:16:14.298Z,8.23
2024-01-31T22:18:40.962Z,9.07
2024-01-31T22:21:07.668Z,9.93
2024-01-31T22:23:35.683Z,9.57
2024-01-31T22:26:02.260Z,8.77
2024-01-31T22:28:28.831Z,8.98
2024-01-31T22:30:56.307Z,8.50
2024-01-31T22:35:49.409Z,8.45
2024-01-31T22:38:15.998Z,8.23
2024-01-31T22:40:44.023Z,7.53
2024-01-31T22:43:10.550Z,7.25
2024-01-31T22:45:37.119Z,8.23
2024-01-31T22:48:04.121Z,7.22
2024-01-31T22:50:30.792Z,7.90
2024-01-31T22:52:57.338Z,7.37
2024-01-31T22:55:23.906Z,7.43
2024-01-31T22:57:51.752Z,7.13
2024-01-31T23:00:18.752Z,6.78
2024-01-31T23:02:45.367Z,7.55
2024-01-31T23:05:11.982Z,6.07
2024-01-31T23:07:38.529Z,7.43
2024-01-31T23:10:06.961Z,6.20
2024-01-31T23:12:33.467Z,6.40
2024-01-31T23:15:01.606Z,6.05
2024-01-31T23:17:28.996Z,5.57
2024-01-31T23:19:55.637Z,6.00
2024-01-31T23:22:22.324Z,6.57
2024-01-31T23:24:48.825Z,6.82
2024-01-31T23:27:15.447Z,6.15
2024-01-31T23:29:42.036Z,5.33
2024-01-31T23:32:09.985Z,5.73
2024-01-31T23:34:36.567Z,5.47
2024-01-31T23:37:03.142Z,5.10
2024-01-31T23:39:29.954Z,5.38
2024-01-31T23:41:56.808Z,4.72
2024-01-31T23:44:23.391Z,4.60
2024-01-31T23:46:49.932Z,5.32
2024-01-31T23:49:17.979Z,4.40
2024-01-31T23:51:44.670Z,4.25
2024-01-31T23:54:11.281Z,3.95
2024-01-31T23:56:38.142Z,3.83
2024-01-31T23:59:05.382Z,4.90
